Airfield :
LOGIN :

Register | Disclaimer

   EN    FR    IT 

 










Legend :    VFR   Marginal VFR   IFR   Intensive IFR   Very Intensive IFR
Visi :
Ceiling :
>= 8 km
>= 3000ft
5 to 8 km
1000 to 3000 ft
1500m to 5 km
500 to 1000 ft
800 to 1500m
200 to 500 ft
< 800m
< 200 ft
Symbols :   Thunderstorms  Fog  Heavy snow  Heavy precipitations  Wind > 20 kt
SIGMETs :     Misc.  Thunderstorms  Icing  Turbulence  Mountain Waves  Volcanic Ashes







- Airport Elevation : 278 ft
- IATA code : RJK


LDRI - Rijeka

CURRENT METAR :
  • 241230Z 27006KT 230V310 CAVOK 21/01 Q1020

EXPIRED METARs :
  • 241200Z 27006KT 240V310 CAVOK 21/01 Q1020
  • 241130Z 30005KT 250V360 CAVOK 21/01 Q1021
  • 241100Z 35004KT 300V040 CAVOK 21/01 Q1021
  • 241030Z 28004KT 170V330 CAVOK 20/01 Q1021
  • 241000Z 28004KT 210V330 CAVOK 20/01 Q1021

TAF TAF LDRI
Valid from the 24 at 12:00 until the 25 at 12:00 UTC


241125Z 2412/2512 30006KT CAVOK TX22/2412Z TN09/2505Z
BECMG 2415/2417 06006KT
BECMG 2510/2512 30006KT
No reported NOTAMs for that airfield.



MET'MAP, your aeronautical weather chart ! - Copyright ORBIFLY December 2007 - Disclaimer

ORBIFLY MET'MAP TEAM :

Programming & Development : Alexandra Zaïnal
Concept & Development : Baudouin d'Aumeries
Co-Development & Prog : Marc-Olivier Méhu
Technical & hardware support : Manuel Goepfert

Contact : metmap@orbifly.com




SOURCES & CREDITS :

   NOAA